Time;durP1;ratioP1;P1;durP2;ratioP2;P2;SDS_P1;SDS_P2;PMS_P1;PMS_P2;Temp;Humidity;BMP_temperature;BMP_pressure;BME280_temperature;BME280_humidity;BME280_pressure;Samples;Min_cycle;Max_cycle;Signal;HPM_P1;HPM_P2
2023/01/25 00:03:49;;;;;;;;;;;0.90;99.90;;;;;;5001873;28;20064;-78
2023/01/25 00:06:14;;;;;;;41.00;21.67;;;0.90;99.90;;;;;;5000139;28;20008;-78
2023/01/25 00:08:40;;;;;;;44.17;22.60;;;0.90;99.90;;;;;;5002101;28;20059;-78
2023/01/25 00:11:05;;;;;;;44.03;22.37;;;0.90;99.90;;;;;;5000453;28;20056;-78
2023/01/25 00:13:31;;;;;;;40.37;21.03;;;0.90;99.90;;;;;;5002746;28;20072;-78
2023/01/25 00:16:01;;;;;;;41.03;21.53;;;0.80;99.90;;;;;;5002173;28;20030;-79
2023/01/25 00:18:27;;;;;;;36.03;20.20;;;0.80;99.90;;;;;;5001285;28;20037;-78
2023/01/25 00:20:52;;;;;;;38.20;19.53;;;0.80;99.90;;;;;;5000415;28;20096;-78
2023/01/25 00:23:20;;;;;;;39.00;19.37;;;0.80;99.90;;;;;;5002104;28;20036;-79
2023/01/25 00:25:46;;;;;;;38.33;20.03;;;0.80;99.90;;;;;;5001468;28;20107;-78
2023/01/25 00:28:11;;;;;;;44.70;22.60;;;0.80;99.90;;;;;;5001016;28;20490;-78
2023/01/25 00:30:37;;;;;;;41.70;21.17;;;0.80;99.90;;;;;;5001243;28;20087;-78
2023/01/25 00:33:19;;;;;;;36.17;18.50;;;0.80;99.90;;;;;;5002541;28;20041;-78
2023/01/25 00:35:44;;;;;;;38.70;18.83;;;0.80;99.90;;;;;;5001470;28;20034;-78
2023/01/25 00:38:28;;;;;;;43.33;20.53;;;0.80;99.90;;;;;;4999327;28;20080;-78
2023/01/25 00:40:54;;;;;;;42.00;17.77;;;0.80;99.90;;;;;;5000716;28;20117;-78
2023/01/25 00:43:19;;;;;;;37.43;19.90;;;0.80;99.90;;;;;;5000701;28;20038;-78
2023/01/25 00:45:45;;;;;;;41.07;19.60;;;0.80;99.90;;;;;;4999906;28;20030;-78
2023/01/25 00:48:10;;;;;;;43.27;21.27;;;0.80;99.90;;;;;;5000357;28;20080;-78
2023/01/25 00:50:37;;;;;;;35.13;20.27;;;0.80;99.90;;;;;;4999988;28;20034;-78
2023/01/25 00:53:02;;;;;;;39.23;21.90;;;0.80;99.90;;;;;;5000873;28;20435;-78
2023/01/25 00:55:28;;;;;;;37.73;19.83;;;0.80;99.90;;;;;;5000530;28;20045;-78
2023/01/25 00:57:53;;;;;;;38.50;19.43;;;0.90;99.90;;;;;;4999213;28;20402;-78
2023/01/25 01:00:19;;;;;;;39.97;20.67;;;0.90;99.90;;;;;;5000899;28;20487;-78
2023/01/25 01:02:44;;;;;;;43.67;21.53;;;0.90;99.90;;;;;;5000558;28;20036;-78
2023/01/25 01:05:10;;;;;;;40.90;21.40;;;0.80;99.90;;;;;;4999896;28;20432;-77
2023/01/25 01:07:35;;;;;;;41.00;21.50;;;0.80;99.90;;;;;;5001483;28;20483;-78
2023/01/25 01:10:01;;;;;;;42.33;20.93;;;0.80;99.90;;;;;;4999330;28;20022;-78
2023/01/25 01:12:26;;;;;;;41.00;21.30;;;0.70;99.90;;;;;;5000312;28;20026;-78
2023/01/25 01:14:52;;;;;;;37.97;19.83;;;0.70;99.90;;;;;;4998441;28;20117;-78
2023/01/25 01:17:17;;;;;;;30.40;16.23;;;0.70;99.90;;;;;;4999978;28;20044;-78
2023/01/25 01:19:43;;;;;;;30.17;16.77;;;0.80;99.90;;;;;;4999619;28;20033;-78
2023/01/25 01:22:09;;;;;;;37.10;19.00;;;0.70;99.90;;;;;;4999877;28;20083;-76
2023/01/25 01:24:34;;;;;;;38.80;20.53;;;0.70;99.90;;;;;;4999561;28;20036;-76
2023/01/25 01:27:00;;;;;;;39.50;19.87;;;0.70;99.90;;;;;;4999174;28;20061;-76
2023/01/25 01:29:25;;;;;;;36.50;19.43;;;0.70;99.90;;;;;;4997717;28;20120;-77
2023/01/25 01:31:51;;;;;;;35.97;18.27;;;0.70;99.90;;;;;;5000395;28;20022;-76
2023/01/25 01:34:17;;;;;;;41.33;20.83;;;0.70;99.90;;;;;;5001024;28;20026;-77
2023/01/25 01:36:44;;;;;;;33.73;17.90;;;0.70;99.90;;;;;;4999967;28;20053;-77
2023/01/25 01:39:09;;;;;;;34.10;17.33;;;0.70;99.90;;;;;;5000257;28;20153;-76
2023/01/25 01:41:36;;;;;;;35.93;18.70;;;0.80;99.90;;;;;;5000138;28;20481;-77
2023/01/25 01:44:01;;;;;;;35.90;17.97;;;0.80;99.90;;;;;;5000146;28;20084;-76
2023/01/25 01:46:37;;;;;;;31.40;17.53;;;0.80;99.90;;;;;;5000522;28;20366;-76
2023/01/25 01:49:05;;;;;;;;;;;0.70;99.90;;;;;;4999096;28;20679;-76
2023/01/25 01:51:47;;;;;;;29.37;15.70;;;0.70;99.90;;;;;;4999375;28;19992;-76
2023/01/25 01:54:19;;;;;;;32.57;16.87;;;0.60;99.90;;;;;;4999889;28;20120;-76
2023/01/25 01:56:50;;;;;;;30.03;17.20;;;0.60;99.90;;;;;;5000848;28;20577;-77
2023/01/25 01:59:18;;;;;;;34.70;17.97;;;0.60;99.90;;;;;;4997682;28;20026;-76
2023/01/25 02:01:44;;;;;;;41.60;17.67;;;0.60;99.90;;;;;;4998486;28;20053;-77
2023/01/25 02:04:11;;;;;;;30.43;16.57;;;0.60;99.90;;;;;;4998803;28;20042;-77
2023/01/25 02:06:58;;;;;;;29.40;16.50;;;0.60;99.90;;;;;;4999085;28;20167;-76
2023/01/25 02:09:27;;;;;;;27.30;14.63;;;0.60;99.90;;;;;;4999220;28;20018;-76
2023/01/25 02:11:53;;;;;;;32.50;17.43;;;0.60;99.90;;;;;;4999734;28;20112;-77
2023/01/25 02:14:19;;;;;;;28.23;16.10;;;0.60;99.90;;;;;;4996612;28;20983;-77
2023/01/25 02:16:45;;;;;;;31.53;16.23;;;0.60;99.90;;;;;;4999758;28;20029;-76
2023/01/25 02:19:22;;;;;;;32.63;17.53;;;0.60;99.90;;;;;;4999303;28;20139;-76
2023/01/25 02:21:50;;;;;;;37.00;19.00;;;0.60;99.90;;;;;;4998561;28;20551;-76
2023/01/25 02:24:24;;;;;;;33.33;16.90;;;0.60;99.90;;;;;;4997343;28;20072;-77
2023/01/25 02:26:49;;;;;;;27.40;15.23;;;0.50;99.90;;;;;;4997386;28;20033;-77
2023/01/25 02:29:18;;;;;;;31.70;16.63;;;0.50;99.90;;;;;;4997699;28;20041;-76
2023/01/25 02:31:45;;;;;;;35.77;19.27;;;0.60;99.90;;;;;;4997588;28;20096;-76
2023/01/25 02:34:11;;;;;;;26.90;15.93;;;0.50;99.90;;;;;;4997264;28;20023;-76
2023/01/25 02:36:36;;;;;;;27.77;15.63;;;0.50;99.90;;;;;;4996486;28;20026;-76
2023/01/25 02:39:07;;;;;;;27.77;15.53;;;0.60;99.90;;;;;;4999515;28;20037;-76
2023/01/25 02:41:38;;;;;;;24.90;14.60;;;0.50;99.90;;;;;;4997531;28;20028;-76
2023/01/25 02:44:25;;;;;;;26.23;14.77;;;0.60;99.90;;;;;;4997582;28;20849;-76
2023/01/25 02:46:50;;;;;;;26.73;14.97;;;0.50;99.90;;;;;;4999392;28;20033;-76
2023/01/25 02:49:16;;;;;;;28.93;15.40;;;0.60;99.90;;;;;;4996604;28;20026;-76
2023/01/25 02:51:46;;;;;;;29.40;15.77;;;0.50;99.90;;;;;;4999358;28;20172;-76
2023/01/25 02:54:13;;;;;;;30.00;15.97;;;0.60;99.90;;;;;;4998543;28;20022;-76
2023/01/25 02:56:39;;;;;;;26.13;15.13;;;0.60;99.90;;;;;;4998254;28;20041;-76
2023/01/25 02:59:06;;;;;;;33.33;16.80;;;0.50;99.90;;;;;;4998063;28;20049;-76
2023/01/25 03:01:36;;;;;;;35.07;17.47;;;0.50;99.90;;;;;;4997645;28;20124;-76
2023/01/25 03:04:01;;;;;;;34.37;17.63;;;0.50;99.90;;;;;;4998357;28;20029;-76
2023/01/25 03:06:27;;;;;;;30.90;17.13;;;0.50;99.90;;;;;;5000047;28;20061;-76
2023/01/25 03:08:53;;;;;;;31.47;16.07;;;0.50;99.90;;;;;;4997432;28;20883;-76
2023/01/25 03:11:18;;;;;;;34.07;17.40;;;0.60;99.90;;;;;;4998007;28;20026;-76
2023/01/25 03:13:44;;;;;;;29.33;16.67;;;0.60;99.90;;;;;;4997612;28;20026;-76
2023/01/25 03:16:12;;;;;;;30.83;16.90;;;0.50;99.90;;;;;;4995009;28;20030;-76
2023/01/25 03:18:39;;;;;;;33.50;18.07;;;0.50;99.90;;;;;;4998158;28;20049;-76
2023/01/25 03:21:11;;;;;;;34.70;18.27;;;0.50;99.90;;;;;;4999152;28;20100;-76
2023/01/25 03:23:37;;;;;;;36.63;17.53;;;0.50;99.90;;;;;;4997764;28;20029;-76
2023/01/25 03:26:09;;;;;;;31.00;17.70;;;0.50;99.90;;;;;;4995958;28;20034;-76
2023/01/25 03:28:35;;;;;;;31.17;17.67;;;0.50;99.90;;;;;;4997289;28;20101;-77
2023/01/25 03:31:00;;;;;;;37.63;19.77;;;0.50;99.90;;;;;;4998034;28;20034;-76
2023/01/25 03:33:26;;;;;;;35.40;19.80;;;0.50;99.90;;;;;;4997427;28;20040;-76
2023/01/25 03:35:56;;;;;;;39.83;21.17;;;0.50;99.90;;;;;;4999842;28;20038;-76
2023/01/25 03:38:22;;;;;;;37.47;19.53;;;0.50;99.90;;;;;;5000422;28;20390;-76
2023/01/25 03:40:48;;;;;;;37.70;19.87;;;0.50;99.90;;;;;;5001854;28;20100;-76
2023/01/25 03:43:14;;;;;;;42.70;21.60;;;0.50;99.90;;;;;;5001386;28;20632;-76
2023/01/25 03:45:39;;;;;;;37.43;20.33;;;0.50;99.90;;;;;;5001773;28;20034;-76
2023/01/25 03:48:05;;;;;;;37.87;20.27;;;0.50;99.90;;;;;;5001990;28;20084;-76
2023/01/25 03:50:31;;;;;;;36.90;19.43;;;0.50;99.90;;;;;;5000752;28;20026;-78
2023/01/25 03:53:06;;;;;;;40.20;20.30;;;0.50;99.90;;;;;;5001581;28;20497;-78
2023/01/25 03:55:33;;;;;;;34.27;18.47;;;0.50;99.90;;;;;;5000650;28;20029;-78
2023/01/25 03:57:58;;;;;;;38.57;20.27;;;0.50;99.90;;;;;;5001060;28;20054;-78
2023/01/25 04:00:24;;;;;;;40.17;20.63;;;0.50;99.90;;;;;;5000254;28;20045;-78
2023/01/25 04:02:50;;;;;;;33.30;18.40;;;0.50;99.90;;;;;;5001076;28;20129;-78
2023/01/25 04:05:18;;;;;;;41.10;20.60;;;0.50;99.90;;;;;;5000400;28;20034;-77
2023/01/25 04:07:43;;;;;;;34.77;18.43;;;0.50;99.90;;;;;;5002072;28;20022;-76
2023/01/25 04:10:10;;;;;;;37.80;20.00;;;0.50;99.90;;;;;;5001657;28;20077;-77
2023/01/25 04:12:35;;;;;;;33.40;17.57;;;0.50;99.90;;;;;;5001923;28;20976;-77
2023/01/25 04:15:01;;;;;;;35.83;19.93;;;0.50;99.90;;;;;;4999840;28;20136;-76
2023/01/25 04:17:26;;;;;;;41.57;19.67;;;0.50;99.90;;;;;;5001453;28;20109;-76
2023/01/25 04:19:52;;;;;;;41.50;20.40;;;0.50;99.90;;;;;;5001211;28;20566;-76
2023/01/25 04:22:17;;;;;;;36.73;18.50;;;0.50;99.90;;;;;;5001662;28;20116;-76
2023/01/25 04:24:43;;;;;;;33.80;18.77;;;0.50;99.90;;;;;;5000878;28;20034;-76
2023/01/25 04:27:11;;;;;;;33.03;18.57;;;0.50;99.90;;;;;;4998664;28;20030;-81
2023/01/25 04:29:37;;;;;;;40.17;19.77;;;0.50;99.90;;;;;;5001832;28;20100;-80
2023/01/25 04:32:02;;;;;;;46.20;21.03;;;0.50;99.90;;;;;;4999789;28;20124;-81
2023/01/25 04:34:28;;;;;;;45.30;22.33;;;0.50;99.90;;;;;;5000764;28;20181;-81
2023/01/25 04:36:53;;;;;;;41.80;19.40;;;0.50;99.90;;;;;;5000134;28;20061;-80
2023/01/25 04:39:19;;;;;;;40.63;20.13;;;0.50;99.90;;;;;;5001068;28;20092;-80
2023/01/25 04:41:44;;;;;;;36.97;20.63;;;0.40;99.90;;;;;;4999945;28;20439;-80
2023/01/25 04:44:10;;;;;;;37.40;19.33;;;0.50;99.90;;;;;;4998365;28;20089;-80
2023/01/25 04:46:36;;;;;;;38.40;19.97;;;0.40;99.90;;;;;;4999833;28;20059;-81
2023/01/25 04:49:02;;;;;;;44.00;20.20;;;0.40;99.90;;;;;;4999611;28;20026;-80
2023/01/25 04:51:27;;;;;;;38.73;19.23;;;0.40;99.90;;;;;;4998975;28;20041;-81
2023/01/25 04:53:53;;;;;;;38.90;19.57;;;0.40;99.90;;;;;;4999418;28;20124;-80
2023/01/25 04:56:18;;;;;;;39.57;19.37;;;0.50;99.90;;;;;;5002274;28;20022;-81
2023/01/25 04:58:44;;;;;;;35.37;18.30;;;0.40;99.90;;;;;;5005477;28;20088;-80
2023/01/25 05:01:09;;;;;;;38.07;18.97;;;0.40;99.90;;;;;;5002705;28;20045;-80
2023/01/25 05:03:35;;;;;;;34.43;18.13;;;0.40;99.90;;;;;;5004903;28;20033;-81
2023/01/25 05:06:00;;;;;;;37.27;18.87;;;0.40;99.90;;;;;;5001777;28;20046;-80
2023/01/25 05:08:26;;;;;;;35.83;18.70;;;0.40;99.90;;;;;;5004601;28;20112;-81
2023/01/25 05:10:52;;;;;;;34.60;19.13;;;0.40;99.90;;;;;;5003368;28;20022;-81
2023/01/25 05:13:17;;;;;;;37.97;18.57;;;0.40;99.90;;;;;;5004417;28;20076;-81
2023/01/25 05:15:43;;;;;;;30.90;16.47;;;0.40;99.90;;;;;;5002333;28;20391;-81
2023/01/25 05:18:09;;;;;;;43.60;25.23;;;0.40;99.90;;;;;;5000169;28;20037;-81
2023/01/25 05:20:34;;;;;;;39.13;22.23;;;0.40;99.90;;;;;;4997258;28;21382;-81
2023/01/25 05:23:00;;;;;;;48.97;25.37;;;0.50;99.90;;;;;;5004886;28;20026;-82
2023/01/25 05:28:10;;;;;;;35.50;22.50;;;0.50;99.90;;;;;;5006337;28;20068;-82
2023/01/25 05:30:35;;;;;;;44.37;33.73;;;0.40;99.90;;;;;;5008197;28;20037;-82
2023/01/25 05:33:01;;;;;;;35.10;23.43;;;0.40;99.90;;;;;;5010484;28;20018;-82
2023/01/25 05:35:26;;;;;;;45.93;34.70;;;0.40;99.90;;;;;;5006030;28;20025;-82
2023/01/25 05:37:56;;;;;;;27.73;15.70;;;0.40;99.90;;;;;;5008835;28;20097;-82
2023/01/25 05:40:22;;;;;;;28.03;14.77;;;0.40;99.90;;;;;;5009728;28;20044;-82
2023/01/25 05:43:01;;;;;;;25.50;13.53;;;0.40;99.90;;;;;;5009888;28;20030;-82
2023/01/25 05:45:28;;;;;;;25.80;14.97;;;0.40;99.90;;;;;;5007453;28;20038;-82
2023/01/25 05:47:57;;;;;;;29.07;15.40;;;0.40;99.90;;;;;;5010972;28;20032;-82
2023/01/25 05:50:24;;;;;;;28.87;16.17;;;0.40;99.90;;;;;;5005386;28;20030;-82
2023/01/25 05:52:49;;;;;;;25.93;15.00;;;0.40;99.90;;;;;;5007462;28;20030;-82
2023/01/25 05:55:15;;;;;;;25.77;13.80;;;0.40;99.90;;;;;;5008877;28;20137;-82
2023/01/25 05:57:41;;;;;;;30.30;14.50;;;0.40;99.90;;;;;;5008500;28;20060;-82
2023/01/25 06:00:09;;;;;;;27.00;15.43;;;0.40;99.90;;;;;;5008255;28;20093;-82
2023/01/25 06:02:35;;;;;;;25.03;15.00;;;0.40;99.90;;;;;;4994499;28;20022;-77
2023/01/25 06:05:01;;;;;;;30.47;18.20;;;0.40;99.90;;;;;;5000260;28;20531;-83
2023/01/25 06:07:27;;;;;;;32.30;18.40;;;0.40;99.90;;;;;;5007449;28;20117;-77
2023/01/25 06:09:52;;;;;;;28.93;15.27;;;0.40;99.90;;;;;;4996430;28;21421;-77
2023/01/25 06:12:21;;;;;;;37.63;21.33;;;0.40;99.90;;;;;;4996018;28;20029;-77
2023/01/25 06:14:47;;;;;;;47.20;25.40;;;0.40;99.90;;;;;;4997010;28;20021;-81
2023/01/25 06:17:13;;;;;;;41.97;23.00;;;0.40;99.90;;;;;;4993598;28;20817;-81
2023/01/25 06:19:50;;;;;;;54.87;32.53;;;0.40;99.90;;;;;;5099294;27;20315;-82
2023/01/25 06:22:16;;;;;;;57.23;26.60;;;0.40;99.90;;;;;;5103049;28;20468;-82
2023/01/25 06:24:41;;;;;;;31.67;18.17;;;0.30;99.90;;;;;;5100689;28;20399;-82
2023/01/25 06:27:07;;;;;;;30.33;15.80;;;0.30;99.90;;;;;;5100351;28;20488;-82
2023/01/25 06:29:33;;;;;;;27.13;13.90;;;0.30;99.90;;;;;;5100189;28;20672;-82
2023/01/25 06:31:58;;;;;;;30.03;15.43;;;0.30;99.90;;;;;;5105411;28;20023;-82
2023/01/25 06:34:24;;;;;;;28.03;15.40;;;0.30;99.90;;;;;;5111443;28;20027;-82
2023/01/25 06:36:49;;;;;;;24.93;13.43;;;0.30;99.90;;;;;;5110264;28;20030;-82
2023/01/25 06:39:15;;;;;;;26.43;13.13;;;0.30;99.90;;;;;;5111373;28;20027;-82
2023/01/25 06:41:40;;;;;;;23.47;13.73;;;0.30;99.90;;;;;;5110637;28;20095;-82
2023/01/25 06:44:07;;;;;;;24.90;13.33;;;0.30;99.90;;;;;;5112845;28;20024;-83
2023/01/25 06:46:33;;;;;;;24.00;13.33;;;0.30;99.90;;;;;;5110606;28;20047;-82
2023/01/25 06:48:58;;;;;;;23.20;13.53;;;0.30;99.90;;;;;;5112334;28;20027;-83
2023/01/25 06:51:24;;;;;;;24.53;12.80;;;0.30;99.90;;;;;;5110213;28;20624;-82
2023/01/25 06:53:50;;;;;;;24.17;12.57;;;0.30;99.90;;;;;;5103846;28;20446;-83
2023/01/25 06:56:18;;;;;;;25.00;15.43;;;0.30;99.90;;;;;;5099463;28;20035;-83
2023/01/25 06:58:44;;;;;;;24.40;12.73;;;0.30;99.90;;;;;;5100871;28;20380;-83
2023/01/25 07:01:18;;;;;;;23.90;13.43;;;0.30;99.90;;;;;;5100309;28;20023;-77
2023/01/25 07:03:50;;;;;;;26.97;12.63;;;0.30;99.90;;;;;;5099201;28;20015;-77
2023/01/25 07:06:17;;;;;;;28.17;14.07;;;0.30;99.90;;;;;;5098238;28;20019;-77
2023/01/25 07:08:43;;;;;;;24.97;14.17;;;0.30;99.90;;;;;;5097899;28;20038;-79
2023/01/25 07:11:12;;;;;;;26.87;14.10;;;0.30;99.90;;;;;;5100408;28;20395;-80
2023/01/25 07:13:39;;;;;;;25.53;13.27;;;0.30;99.90;;;;;;5100847;28;20035;-79
2023/01/25 07:16:09;;;;;;;29.13;15.27;;;0.40;99.90;;;;;;5109436;28;20059;-85
2023/01/25 07:18:36;;;;;;;27.53;14.33;;;0.40;99.90;;;;;;5115764;28;20051;-85
2023/01/25 07:21:13;;;;;;;28.67;14.57;;;0.40;99.90;;;;;;5116830;28;20451;-85
2023/01/25 07:23:40;;;;;;;61.73;28.47;;;0.30;99.90;;;;;;5118152;28;20024;-85
2023/01/25 07:26:23;;;;;;;156.47;71.20;;;0.30;99.90;;;;;;5118976;28;20041;-85
2023/01/25 07:28:49;;;;;;;40.03;20.83;;;0.40;99.90;;;;;;5120571;28;20019;-85
2023/01/25 07:31:16;;;;;;;30.87;17.17;;;0.30;99.90;;;;;;5098410;28;20022;-85
2023/01/25 07:33:42;;;;;;;74.50;27.23;;;0.30;99.90;;;;;;5101417;28;20020;-85
2023/01/25 07:36:09;;;;;;;63.23;24.33;;;0.40;99.90;;;;;;5115349;28;20090;-85
2023/01/25 07:38:35;;;;;;;69.97;26.77;;;0.30;99.90;;;;;;5099960;28;20032;-85
2023/01/25 07:41:01;;;;;;;30.77;15.60;;;0.40;99.90;;;;;;5101536;28;20020;-85
2023/01/25 07:43:27;;;;;;;26.70;14.73;;;0.40;99.90;;;;;;5096587;28;20027;-85
2023/01/25 07:45:53;;;;;;;24.13;13.77;;;0.40;99.90;;;;;;5101171;28;20019;-85
2023/01/25 07:48:19;;;;;;;24.60;13.30;;;0.40;99.90;;;;;;5098159;28;20020;-85
2023/01/25 07:50:48;;;;;;;25.10;14.37;;;0.40;99.90;;;;;;5097819;28;20035;-86
2023/01/25 07:53:19;;;;;;;25.03;13.60;;;0.40;99.90;;;;;;5098288;28;20429;-86
2023/01/25 07:55:44;;;;;;;22.47;13.37;;;0.40;99.90;;;;;;5084691;28;20035;-84
2023/01/25 07:58:10;;;;;;;23.13;12.60;;;0.40;99.90;;;;;;5087898;28;20151;-84
2023/01/25 08:00:36;;;;;;;24.10;13.63;;;0.40;99.90;;;;;;5087316;28;20020;-84
2023/01/25 08:03:01;;;;;;;23.53;12.30;;;0.40;99.90;;;;;;5088124;28;20028;-84
2023/01/25 08:05:27;;;;;;;24.67;13.27;;;0.40;99.90;;;;;;5088885;28;20028;-84
2023/01/25 08:07:52;;;;;;;21.60;12.07;;;0.40;99.90;;;;;;5086574;28;20028;-84
2023/01/25 08:10:18;;;;;;;23.80;14.23;;;0.40;99.90;;;;;;5088336;28;20486;-84
2023/01/25 08:12:45;;;;;;;31.63;16.73;;;0.40;99.90;;;;;;5088247;28;20094;-84
2023/01/25 08:15:11;;;;;;;40.33;24.17;;;0.40;99.90;;;;;;5085764;28;20467;-84
2023/01/25 08:17:58;;;;;;;49.43;26.17;;;0.40;99.90;;;;;;4655381;22;22149;-78
2023/01/25 08:20:24;;;;;;;35.97;20.73;;;0.40;99.90;;;;;;5061155;28;20040;-80
2023/01/25 08:22:51;;;;;;;26.00;15.40;;;0.40;99.90;;;;;;5069698;28;20056;-81
2023/01/25 08:25:16;;;;;;;29.20;16.57;;;0.30;99.90;;;;;;5065962;28;20032;-81
2023/01/25 08:27:42;;;;;;;26.07;15.37;;;0.30;99.90;;;;;;5064825;28;20021;-81
2023/01/25 08:30:08;;;;;;;26.87;15.87;;;0.30;99.90;;;;;;5066003;28;20024;-81
2023/01/25 08:32:34;;;;;;;25.30;15.13;;;0.30;99.90;;;;;;5065903;28;20040;-81
2023/01/25 08:35:00;;;;;;;24.37;14.80;;;0.20;99.90;;;;;;5065574;28;20028;-81
2023/01/25 08:37:28;;;;;;;26.10;14.70;;;0.20;99.90;;;;;;5067283;28;20421;-81
2023/01/25 08:39:56;;;;;;;26.37;14.90;;;0.20;99.90;;;;;;5069277;28;20024;-81
2023/01/25 08:42:21;;;;;;;28.17;16.93;;;0.20;99.90;;;;;;5067829;28;20040;-81
2023/01/25 08:44:49;;;;;;;26.37;15.80;;;0.30;99.90;;;;;;5069436;28;20021;-81
2023/01/25 08:47:15;;;;;;;22.07;13.93;;;0.30;99.90;;;;;;5066521;28;20044;-81
2023/01/25 08:49:40;;;;;;;28.07;14.47;;;0.30;99.90;;;;;;5068394;28;20068;-81
2023/01/25 08:52:06;;;;;;;24.27;13.93;;;0.30;99.90;;;;;;5068993;28;20035;-81
2023/01/25 08:54:32;;;;;;;26.73;13.73;;;0.30;99.90;;;;;;5069236;28;20025;-81
2023/01/25 08:56:57;;;;;;;22.90;13.00;;;0.30;99.90;;;;;;5069044;28;21026;-81
2023/01/25 08:59:23;;;;;;;24.63;12.97;;;0.30;99.90;;;;;;5066093;28;20028;-81
2023/01/25 09:01:48;;;;;;;26.40;13.87;;;0.30;99.90;;;;;;5059958;28;20056;-83
2023/01/25 09:04:14;;;;;;;25.33;12.90;;;0.30;99.90;;;;;;5058300;28;20523;-82
2023/01/25 09:06:39;;;;;;;25.37;13.37;;;0.30;99.90;;;;;;5059135;28;20080;-83
2023/01/25 09:09:07;;;;;;;22.80;12.57;;;0.30;99.90;;;;;;5058857;28;20495;-83
2023/01/25 09:11:35;;;;;;;24.73;13.40;;;0.30;99.90;;;;;;5060793;28;20028;-84
2023/01/25 09:14:01;;;;;;;23.13;13.83;;;0.40;99.90;;;;;;5064797;28;20021;-83
2023/01/25 09:16:27;;;;;;;22.13;13.03;;;0.40;99.90;;;;;;5059563;28;20028;-83
2023/01/25 09:18:54;;;;;;;25.80;13.87;;;0.40;99.90;;;;;;5054752;28;20053;-83
2023/01/25 09:21:22;;;;;;;26.57;13.50;;;0.40;99.90;;;;;;5061826;28;20036;-83
2023/01/25 09:23:49;;;;;;;25.70;13.87;;;0.40;99.90;;;;;;5061412;28;20017;-81
2023/01/25 09:26:15;;;;;;;22.53;12.53;;;0.40;99.90;;;;;;5064933;28;20066;-81
2023/01/25 09:28:42;;;;;;;33.17;16.83;;;0.40;99.90;;;;;;5061943;28;20024;-82
2023/01/25 09:31:10;;;;;;;22.70;12.93;;;0.40;99.90;;;;;;5061774;28;20179;-81
2023/01/25 09:33:37;;;;;;;99.23;51.00;;;0.50;99.90;;;;;;5062694;28;20029;-81
2023/01/25 09:36:04;;;;;;;37.33;22.47;;;0.40;99.90;;;;;;5063216;28;20031;-81
2023/01/25 09:38:29;;;;;;;30.63;17.87;;;0.50;99.90;;;;;;5063566;28;20024;-82
2023/01/25 09:41:14;;;;;;;32.83;19.30;;;0.50;99.90;;;;;;5064674;28;20027;-81
2023/01/25 09:43:42;;;;;;;36.73;21.63;;;0.40;99.90;;;;;;5058893;28;20029;-81
2023/01/25 09:46:24;;;;;;;27.27;16.00;;;0.40;99.90;;;;;;5060104;28;20349;-83
2023/01/25 09:49:13;;;;;;;30.03;19.73;;;0.40;99.90;;;;;;5055455;28;20481;-82
2023/01/25 09:52:15;;;;;;;34.70;21.63;;;0.40;99.90;;;;;;5054766;28;20043;-83
2023/01/25 09:54:45;;;;;;;35.43;21.17;;;0.40;99.90;;;;;;5054649;28;20028;-81
2023/01/25 09:57:26;;;;;;;37.27;21.27;;;0.40;99.90;;;;;;5055940;28;20036;-81
2023/01/25 09:59:54;;;;;;;29.80;16.30;;;0.30;99.90;;;;;;5062508;28;20047;-83
2023/01/25 10:02:46;;;;;;;35.73;17.57;;;0.40;99.90;;;;;;5057279;28;20025;-83
2023/01/25 10:05:20;;;;;;;33.93;17.30;;;0.30;99.90;;;;;;5047251;28;20978;-83
2023/01/25 10:08:05;;;;;;;32.97;16.30;;;0.40;99.90;;;;;;5058080;28;20048;-83
2023/01/25 10:10:40;;;;;;;37.78;18.10;;;0.30;99.90;;;;;;5079838;28;20086;-81
2023/01/25 10:13:16;;;;;;;37.58;18.02;;;0.30;99.90;;;;;;5072054;28;20028;-82
2023/01/25 10:15:54;;;;;;;42.03;18.77;;;0.30;99.90;;;;;;5065206;28;20113;-82
2023/01/25 10:18:38;;;;;;;33.30;16.87;;;0.20;99.90;;;;;;5061190;28;20047;-82
2023/01/25 10:21:17;;;;;;;33.67;16.90;;;0.20;99.90;;;;;;5063823;28;20044;-81
2023/01/25 10:23:50;;;;;;;30.07;14.57;;;0.30;99.90;;;;;;5061150;28;20028;-82
2023/01/25 10:26:34;;;;;;;32.97;16.23;;;0.30;99.90;;;;;;5058452;28;20029;-83
2023/01/25 10:29:19;;;;;;;31.93;16.33;;;0.30;99.90;;;;;;5060152;28;20029;-82
2023/01/25 10:31:48;;;;;;;34.40;18.42;;;0.30;99.90;;;;;;5057142;28;20028;-83
2023/01/25 10:34:19;;;;;;;35.33;19.40;;;0.30;99.90;;;;;;5052556;28;20783;-83
2023/01/25 10:36:56;;;;;;;28.83;16.80;;;0.30;99.90;;;;;;5054090;28;20063;-81
2023/01/25 10:39:22;;;;;;;29.90;16.47;;;0.30;99.90;;;;;;5055152;28;20025;-81
2023/01/25 10:41:59;;;;;;;30.83;17.17;;;0.30;99.90;;;;;;5060064;28;20085;-82
2023/01/25 10:44:25;;;;;;;33.33;17.53;;;0.30;99.90;;;;;;5052398;28;20601;-81
2023/01/25 10:47:28;;;;;;;33.83;18.67;;;0.40;99.90;;;;;;5058472;28;20480;-82
2023/01/25 10:49:54;;;;;;;34.17;18.00;;;0.40;99.90;;;;;;5049461;28;20777;-81
2023/01/25 10:52:22;;;;;;;31.87;16.33;;;0.40;99.90;;;;;;5060209;28;20035;-82
2023/01/25 10:55:05;;;;;;;33.27;17.70;;;0.30;99.90;;;;;;5053608;28;20039;-81
2023/01/25 10:57:31;;;;;;;33.83;17.63;;;0.30;99.90;;;;;;5059600;28;20373;-81
2023/01/25 11:00:06;;;;;;;29.63;15.77;;;0.30;99.90;;;;;;5057350;28;20032;-81
2023/01/25 11:02:37;;;;;;;32.67;17.20;;;0.40;99.90;;;;;;5066932;28;20032;-83
2023/01/25 11:05:36;;;;;;;34.83;18.60;;;0.30;99.90;;;;;;5052367;28;20258;-82
2023/01/25 11:08:15;;;;;;;37.63;18.43;;;0.30;99.90;;;;;;5054571;28;21403;-82
2023/01/25 11:10:43;;;;;;;34.53;18.27;;;0.30;99.90;;;;;;5063433;28;20186;-81
2023/01/25 11:13:15;;;;;;;37.40;18.07;;;0.30;99.90;;;;;;5057334;28;20028;-83
2023/01/25 11:15:40;;;;;;;36.27;18.23;;;0.30;99.90;;;;;;5061560;28;20032;-82
2023/01/25 11:18:12;;;;;;;38.47;18.53;;;0.30;99.90;;;;;;5056853;28;20043;-83
2023/01/25 11:20:38;;;;;;;37.67;17.73;;;0.30;99.90;;;;;;5054801;28;20132;-83
2023/01/25 11:23:23;;;;;;;37.77;17.83;;;0.30;99.90;;;;;;5057885;28;20029;-81
2023/01/25 11:25:52;;;;;;;38.08;17.40;;;0.30;99.90;;;;;;5064705;28;20029;-81
2023/01/25 11:28:23;;;;;;;37.40;17.93;;;0.30;99.90;;;;;;5060208;28;20467;-81
2023/01/25 11:30:51;;;;;;;39.57;17.70;;;0.30;99.90;;;;;;5063818;28;20020;-82
2023/01/25 11:33:20;;;;;;;41.70;18.47;;;0.30;99.90;;;;;;5061305;28;20387;-80
2023/01/25 11:36:19;;;;;;;40.70;20.17;;;0.30;99.90;;;;;;5061828;28;20036;-81
2023/01/25 11:39:42;;;;;;;46.00;20.47;;;0.40;99.90;;;;;;5060754;28;20107;-81
2023/01/25 11:42:44;;;;;;;39.10;19.27;;;0.30;99.90;;;;;;5042935;28;20122;-83
2023/01/25 11:45:32;;;;;;;41.80;18.73;;;0.40;99.90;;;;;;5065201;28;20029;-83
2023/01/25 11:48:31;;;;;;;47.47;22.40;;;0.30;99.90;;;;;;5062357;28;20040;-81
2023/01/25 11:51:05;;;;;;;45.50;22.37;;;0.30;99.90;;;;;;5061759;28;20032;-83
2023/01/25 11:53:39;;;;;;;37.67;18.23;;;0.40;99.90;;;;;;5060529;28;20021;-83
2023/01/25 11:58:59;;;;;;;34.07;17.43;;;0.40;99.90;;;;;;5040075;28;20069;-82
2023/01/25 12:01:56;;;;;;;32.05;16.45;;;0.30;99.90;;;;;;5020864;28;20029;-80
2023/01/25 12:04:38;;;;;;;39.90;20.37;;;0.40;99.90;;;;;;5032820;28;20036;-81
2023/01/25 12:07:31;;;;;;;42.87;23.07;;;0.40;99.90;;;;;;5026531;28;20021;-83
2023/01/25 12:10:14;;;;;;;59.50;32.00;;;0.40;99.90;;;;;;5022067;28;20036;-83
2023/01/25 12:13:17;;;;;;;60.37;31.77;;;0.40;99.90;;;;;;5039392;28;20029;-83
2023/01/25 12:15:57;;;;;;;37.73;18.00;;;0.40;99.90;;;;;;4996274;28;20063;-82
2023/01/25 12:18:41;;;;;;;43.20;20.20;;;0.40;99.90;;;;;;5037750;28;20033;-81
2023/01/25 12:21:34;;;;;;;50.93;27.93;;;0.40;99.90;;;;;;5038690;28;20025;-81
2023/01/25 12:24:38;;;;;;;42.97;22.07;;;0.40;99.90;;;;;;5037444;28;20481;-81
2023/01/25 12:27:37;;;;;;;35.73;17.23;;;0.30;99.90;;;;;;5019649;28;20033;-81
2023/01/25 12:30:20;;;;;;;48.40;22.93;;;0.40;99.90;;;;;;5037346;28;20075;-81
2023/01/25 12:33:20;;;;;;;68.20;31.67;;;0.40;99.90;;;;;;5037326;28;20027;-81
2023/01/25 12:35:58;;;;;;;60.03;26.10;;;0.30;99.90;;;;;;4993583;28;20040;-82
2023/01/25 12:38:27;;;;;;;74.20;31.60;;;0.30;99.90;;;;;;5031444;28;20038;-82
2023/01/25 12:41:01;;;;;;;67.47;28.97;;;0.30;99.90;;;;;;5036593;28;20051;-81
2023/01/25 12:43:36;;;;;;;73.07;30.73;;;0.30;99.90;;;;;;5033826;28;20033;-81
2023/01/25 12:46:14;;;;;;;68.93;30.03;;;0.20;99.90;;;;;;5035772;28;20135;-81
2023/01/25 12:48:46;;;;;;;72.67;30.50;;;0.20;99.90;;;;;;5037849;28;20032;-81
2023/01/25 12:51:14;;;;;;;61.53;28.37;;;0.20;99.90;;;;;;5019208;28;20485;-81
2023/01/25 12:53:45;;;;;;;66.80;30.60;;;0.20;99.90;;;;;;5037499;28;21027;-81
2023/01/25 12:56:24;;;;;;;63.03;27.20;;;0.20;99.90;;;;;;5019262;28;20816;-81
2023/01/25 12:58:55;;;;;;;54.97;25.63;;;0.20;99.90;;;;;;5035278;28;20049;-81
2023/01/25 13:01:33;;;;;;;66.30;27.57;;;0.20;99.90;;;;;;5021445;28;20104;-81